• Join FlightAware (Why Join?)
  • Login
  • US Flag 
03:32AM EDT


 

Airport Tracker/Info


-or-


 

Live Flight TrackerFlight Track Log ✈ EJA566 ✈ 06-Oct-2013 ✈ KBFM - KDAL

Flight Track Log - Related Links

Times and Time Zones

All times are in EDT time to prevent confusion due to time zone crossing. See the EJA566 flight status page for this flight to view local times or setup timezone preferences in your user account.

Time Position Orientation Groundspeed Altitude Reporting Facility
EDT Latitude Longitude Course Direction KTS MPH feet Rate Location/Type
11:58AM 30.5808 -88.0239 286° West 196 226 3,900  Level Houston Center
11:59AM 30.6044 -87.9767 60° Northeast 233 268 8,000 3,060 Climbing Houston Center
12:00PM 30.6667 -88.0056 338° Northwest 247 284 10,300 2,280 Climbing Houston Center
12:02PM 30.7403 -88.0478 334° Northwest 286 329 12,800 2,640 Climbing Houston Center
12:03PM 30.8036 -88.1108 319° Northwest 298 343 15,800 2,880 Climbing Houston Center
12:04PM 30.8153 -88.7171 286° West  Level Estimated
12:04PM 30.8408 -88.1944 297° West 301 346 18,800  Level Houston Center
12:05PM 30.8542 -88.3092 278° West 297 342 22,400 2,520 Climbing Houston Center
12:06PM 30.8633 -88.3881 278° West 287 330 24,100 1,680 Climbing Houston Center
12:07PM 30.8767 -88.5044 278° West 304 350 25,900 1,380 Climbing Houston Center
12:08PM 30.8875 -88.6083 277° West 323 372 27,000 1,020 Climbing Houston Center
12:09PM 30.8992 -88.7153 277° West 344 396 28,100 840 Climbing Houston Center
12:10PM 30.9119 -88.8339 277° West 366 421 28,800 660 Climbing Houston Center
12:11PM 30.9269 -88.9592 278° West 381 438 29,500 720 Climbing Houston Center
12:12PM 30.9397 -89.0828 277° West 387 445 30,300 900 Climbing Houston Center
12:13PM 30.9550 -89.2286 277° West 379 436 31,400 960 Climbing Houston Center
12:14PM 30.9683 -89.3514 277° West 383 441 32,300 900 Climbing Houston Center
12:15PM 30.9817 -89.4736 277° West 382 440 33,300 780 Climbing Houston Center
12:16PM 30.9939 -89.5950 277° West 381 438 34,000 600 Climbing Houston Center
12:17PM 31.0072 -89.7183 277° West 384 442 34,600 540 Climbing Houston Center
12:18PM 31.0197 -89.8442 277° West 391 450 35,200 960 Climbing Houston Center
12:19PM 31.0342 -89.9947 276° West 387 445 36,600 1,260 Climbing Houston Center
12:20PM 31.0464 -90.1158 277° West 377 434 37,900 660 Climbing Houston Center
12:21PM 31.0600 -90.2386 277° West 382 440 38,000  Climbing Houston Center
12:22PM 31.0708 -90.3650 276° West 391 450 38,000  Level Houston Center
12:23PM 31.0828 -90.4900 276° West 389 448 38,000  Level Houston Center
12:24PM 31.0972 -90.6381 277° West 383 441 38,000  Level Houston Center
12:25PM 31.1092 -90.7625 276° West 386 444 38,000  Level Houston Center
12:26PM 31.1206 -90.8872 276° West 386 444 38,000  Level Houston Center
12:27PM 31.1319 -91.0106 276° West 385 443 38,000  Level Houston Center
12:28PM 31.1525 -91.1342 281° West 388 447 38,000  Level Houston Center
12:29PM 31.1825 -91.2544 286° West 388 447 38,000  Level Houston Center
12:30PM 31.2158 -91.4006 285° West 388 447 38,000  Level Houston Center
12:31PM 31.2419 -91.5169 285° West 388 447 38,000  Level Houston Center
12:32PM 31.2706 -91.6375 286° West 386 444 38,000  Level Houston Center
12:34PM 31.2978 -91.7589 285° West 386 444 38,000  Level Houston Center
12:35PM 31.3308 -91.9067 285° West 391 450 38,000  Level Houston Center
12:36PM 31.3569 -92.0283 284° West 388 447 38,000  Level Houston Center
12:37PM 31.3800 -92.1472 283° West 384 442 38,000  Level Houston Center
12:38PM 31.4092 -92.2692 286° West 387 445 38,000  Level Houston Center
12:39PM 31.4367 -92.3906 285° West 387 445 38,000  Level Houston Center
12:40PM 31.4667 -92.5097 286° West 383 441 38,000  Level Houston Center
12:41PM 31.4975 -92.6514 284° West 377 434 38,000  Level Houston Center
12:42PM 31.5222 -92.7661 284° West 368 423 38,000  Level Houston Center
12:43PM 31.5475 -92.8806 285° West 365 420 38,000  Level Houston Center
12:44PM 31.5719 -92.9936 284° West 362 417 38,000  Level Houston Center
12:45PM 31.5967 -93.1086 284° West 366 421 38,000  Level Houston Center
12:46PM 31.6222 -93.2247 285° West 369 425 38,000  Level Houston Center
12:47PM 31.6517 -93.3600 284° West 372 428 38,000  Level Houston Center
12:48PM 31.6764 -93.4772 284° West 372 428 38,000  Level Houston Center
12:49PM 31.7125 -93.6028 289° West 368 423 38,000  Level Houston Center
12:50PM 31.7486 -93.7144 291° West 368 423 38,000  Level Houston Center
12:51PM 31.7850 -93.8269 291° West 369 425 38,000  Level Houston Center
12:52PM 31.8253 -93.9522 291° West 374 430 38,000  Level Houston Center
12:53PM 31.8625 -94.0672 291° West 377 434 38,000  Level Houston Center
12:54PM 31.8994 -94.1847 290° West 381 438 38,000  Level Houston Center
12:55PM 31.9411 -94.3139 291° West 384 442 38,000 -300 Level Houston Center
12:56PM 31.9772 -94.4281 290° West 376 433 37,500 -960 Descending Houston Center
12:57PM 32.0133 -94.5433 290° West 376 433 36,100 -1,440 Descending Houston Center
12:58PM 32.0564 -94.6803 290° West 381 438 34,300 -1,500 Descending Fort Worth Center
12:59PM 32.0900 -94.7919 290° West 376 433 32,800 -1,500 Descending Fort Worth Center
01:00PM 32.1258 -94.9064 290° West 371 427 31,300 -1,500 Descending Fort Worth Center
01:01PM 32.1636 -95.0231 291° West 371 427 29,800 -1,500 Descending Fort Worth Center
01:02PM 32.2014 -95.1497 289° West 389 448 28,300 -1,500 Descending Fort Worth Center
01:03PM 32.2369 -95.2717 289° West 395 455 26,800 -1,500 Descending Fort Worth Center
01:04PM 32.2764 -95.3936 291° West 395 455 25,300 -1,380 Descending Fort Worth Center
01:05PM 32.3158 -95.5131 291° West 395 455 24,100 -660 Descending Fort Worth Center
01:06PM 32.3492 -95.6356 288° West 395 455 24,000 -60 Descending Fort Worth Center
01:07PM 32.3883 -95.7528 292° West 395 455 24,000 -300 Level Fort Worth Center
01:08PM 32.4231 -95.8728 289° West 389 448 23,400 -1,800 Descending Fort Worth Center
01:09PM 32.4622 -96.0000 290° West 377 434 20,400 -3,480 Descending Fort Worth Center
01:10PM 32.4969 -96.1103 290° West 369 425 16,500 -3,780 Descending Fort Worth Center
01:11PM 32.5292 -96.2183 290° West 362 417 12,900 -3,300 Descending Fort Worth Center
01:12PM 32.5322 -96.3217 272° West 339 390 9,900 -2,760 Descending Fort Worth Center
01:13PM 32.5308 -96.4106 269° West 292 336 7,400 -2,400 Descending Fort Worth Center
01:14PM 32.5481 -96.4867 285° West 254 292 5,200 -1,800 Descending Fort Worth Center
01:15PM 32.5883 -96.5481 308° West 234 269 3,900 -1,140 Descending Fort Worth Center
01:16PM 32.6303 -96.5944 317° Northwest 234 269 3,000 -540 Descending Fort Worth Center
01:17PM 32.6667 -96.6333 318° Northwest 206 237 3,000  Level Dallas / Fort Worth TRACON
01:18PM 32.7000 -96.6833 308° West 197 227 3,000  Level Dallas / Fort Worth TRACON
01:19PM 32.7333 -96.7167 320° Northwest 195 224 3,000 -420 Level Dallas / Fort Worth TRACON
01:20PM 32.7833 -96.7667 320° Northwest 184 212 2,300 -780 Descending Dallas / Fort Worth TRACON
01:21PM 32.8167 -96.8000 320° Northwest 119 137 1,400 -720 Descending Dallas / Fort Worth TRACON
01:22PM 32.8333 -96.8333 301° West 110 127 800 -600 Descending Dallas / Fort Worth TRACON
01:26PM 32.8333 -96.8500 301° West  Level FlightAware Approximate